Mc Comb, Pike County, John E Lewis Field Mc Comb US
ICAO: KMCB
IATA: MCB
Category: Medium
Scheduled Services: No

Elevation: 413 ft
TransAlt. 18000 ft.

Airport Communications:
ASOS:119.025
HOUSTON CNTR:133.5
GREENWOOD RDO:122.2
CTAF/UNICOM:123.05

KMCB Zoom In..

If you have problems with the map follow the link
https://www.worldairports.se/pages/airport.php?
ICAO=KMCB

Runways:

(A) RW 15 length 5000 ft width 100 ft
ILS 109.10 / hdg 153

(B) RW 33 length 5000 ft width 100 ft
---- / hdg 333

Location; KMCB
Day. 27 / Time. 05.20 Zulu
* Altimeter: 29.99
* Temperature: 10° c. 50°f.
* Wind from: 000° Speed 00 kn.
Dewpoint: 09° c.
Visibility: 2 m.
Clouds: Overcast 300 ft.
Conditions: Mist.

KMCB 270520Z AUTO 00000KT 2 1/2SM BR OVC003 10/09 A2999 RMK AO2 T01000094


Wind - Calm.

 
 
jpsmedia worldairports.se 2020   terms of use